createdAt,value
2022-11-09T00:01:51.246Z,8.30
2022-11-09T00:06:47.549Z,9.02
2022-11-09T00:11:43.796Z,9.32
2022-11-09T00:16:40.010Z,8.98
2022-11-09T00:21:36.212Z,9.18
2022-11-09T00:26:32.416Z,10.18
2022-11-09T00:31:28.662Z,9.85
2022-11-09T00:36:25.685Z,9.00
2022-11-09T00:41:22.549Z,9.68
2022-11-09T00:46:19.444Z,9.50
2022-11-09T00:51:15.893Z,9.18
2022-11-09T00:56:12.604Z,9.93
2022-11-09T01:01:11.208Z,9.75
2022-11-09T01:06:08.288Z,10.35
2022-11-09T01:11:05.562Z,10.73
2022-11-09T01:16:04.744Z,10.73
2022-11-09T01:21:01.847Z,10.82
2022-11-09T01:26:02.171Z,10.30
2022-11-09T01:31:02.338Z,10.40
2022-11-09T01:36:02.469Z,10.75
2022-11-09T01:40:59.003Z,11.35
2022-11-09T01:46:06.387Z,11.38
2022-11-09T01:51:09.721Z,11.32
2022-11-09T01:56:07.688Z,12.00
2022-11-09T02:01:05.003Z,12.73
2022-11-09T02:06:04.010Z,12.20
2022-11-09T02:11:03.260Z,13.45
2022-11-09T02:15:59.573Z,14.52
2022-11-09T02:20:57.177Z,14.27
2022-11-09T02:26:01.921Z,14.15
2022-11-09T02:30:58.850Z,15.25
2022-11-09T02:35:55.159Z,14.38
2022-11-09T02:40:51.849Z,14.13
2022-11-09T02:45:48.098Z,13.68
2022-11-09T02:50:44.272Z,13.85
2022-11-09T02:55:40.587Z,13.63
2022-11-09T03:00:36.798Z,13.68
2022-11-09T03:05:33.026Z,14.75
2022-11-09T03:10:29.369Z,15.30
2022-11-09T03:15:25.669Z,15.18
2022-11-09T03:20:21.919Z,15.50
2022-11-09T03:25:18.185Z,16.15
2022-11-09T03:30:14.656Z,16.05
2022-11-09T03:35:10.944Z,16.60
2022-11-09T03:40:07.381Z,18.10
2022-11-09T03:45:03.716Z,17.10
2022-11-09T03:49:59.919Z,16.95
2022-11-09T03:54:56.136Z,16.35
2022-11-09T03:59:52.334Z,16.67
2022-11-09T04:04:48.534Z,17.98
2022-11-09T04:09:44.724Z,16.23
2022-11-09T04:14:41.167Z,18.05
2022-11-09T04:19:37.409Z,16.73
2022-11-09T04:24:33.601Z,16.67
2022-11-09T04:29:30.035Z,16.55
2022-11-09T04:34:26.390Z,17.70
2022-11-09T04:39:22.605Z,18.50
2022-11-09T04:44:18.839Z,18.70
2022-11-09T04:49:15.041Z,19.40
2022-11-09T04:54:11.562Z,20.95
2022-11-09T04:59:07.917Z,20.73
2022-11-09T05:04:04.330Z,20.90
2022-11-09T05:09:01.669Z,21.42
2022-11-09T05:13:58.099Z,22.30
2022-11-09T05:18:54.708Z,24.85
2022-11-09T05:24:00.352Z,26.10
2022-11-09T05:28:58.927Z,25.75
2022-11-09T05:33:55.271Z,27.70
2022-11-09T05:38:51.588Z,23.95
2022-11-09T05:43:47.806Z,24.85
2022-11-09T05:48:44.367Z,23.60
2022-11-09T05:53:45.137Z,22.75
2022-11-09T05:58:42.669Z,22.80
2022-11-09T06:03:40.274Z,23.98
2022-11-09T06:08:36.689Z,24.80
2022-11-09T06:13:33.221Z,25.90
2022-11-09T06:18:30.478Z,24.92
2022-11-09T06:23:27.111Z,27.05
2022-11-09T06:28:23.423Z,26.58
2022-11-09T06:33:19.928Z,28.08
2022-11-09T06:38:16.298Z,26.65
2022-11-09T06:43:12.547Z,25.42
2022-11-09T06:48:09.751Z,27.25
2022-11-09T06:53:07.292Z,25.27
2022-11-09T06:58:07.490Z,24.60
2022-11-09T07:03:03.907Z,24.42
2022-11-09T07:08:00.104Z,23.05
2022-11-09T07:12:59.680Z,24.00
2022-11-09T07:18:02.271Z,24.58
2022-11-09T07:22:58.451Z,23.73
2022-11-09T07:27:54.685Z,26.20
2022-11-09T07:38:07.654Z,26.25
2022-11-09T07:43:05.003Z,26.30
2022-11-09T07:48:02.372Z,25.23
2022-11-09T07:52:59.472Z,25.45
2022-11-09T07:57:56.647Z,24.88
2022-11-09T08:02:52.965Z,24.35
2022-11-09T08:07:53.825Z,22.67
2022-11-09T08:12:54.389Z,22.35
2022-11-09T08:17:50.662Z,22.77
2022-11-09T08:22:47.244Z,22.02
2022-11-09T08:27:43.537Z,22.48
2022-11-09T08:32:40.270Z,20.13
2022-11-09T08:37:37.552Z,18.90
2022-11-09T08:42:33.889Z,18.33
2022-11-09T08:47:30.108Z,18.08
2022-11-09T08:52:26.542Z,19.17
2022-11-09T08:57:23.769Z,19.70
2022-11-09T09:02:20.912Z,16.13
2022-11-09T09:07:17.202Z,15.98
2022-11-09T09:12:13.447Z,14.82
2022-11-09T09:17:10.740Z,15.48
2022-11-09T09:22:07.124Z,15.30
2022-11-09T09:27:03.495Z,14.57
2022-11-09T09:31:59.710Z,14.10
2022-11-09T09:36:56.094Z,13.32
2022-11-09T09:41:54.267Z,12.90
2022-11-09T09:46:58.359Z,12.05
2022-11-09T09:51:57.932Z,11.68
2022-11-09T09:56:57.344Z,11.57
2022-11-09T10:01:57.263Z,11.73
2022-11-09T10:06:59.714Z,11.50
2022-11-09T10:12:00.800Z,12.23
2022-11-09T10:17:13.550Z,11.73
2022-11-09T10:22:09.748Z,11.10
2022-11-09T10:27:17.528Z,11.23
2022-11-09T10:32:15.102Z,11.18
2022-11-09T10:37:20.918Z,11.20
2022-11-09T10:42:17.129Z,11.02
2022-11-09T10:47:14.862Z,11.27
2022-11-09T10:52:31.981Z,10.60
2022-11-09T10:57:28.159Z,10.13
2022-11-09T11:02:24.369Z,9.80
2022-11-09T11:07:21.941Z,9.73
2022-11-09T11:12:20.367Z,9.95
2022-11-09T11:17:22.725Z,9.95
2022-11-09T11:22:23.431Z,8.30
2022-11-09T11:27:23.391Z,10.27
2022-11-09T11:32:20.292Z,9.43
2022-11-09T11:37:16.522Z,10.57
2022-11-09T11:42:15.851Z,9.05
2022-11-09T11:47:30.761Z,9.10
2022-11-09T11:52:44.869Z,9.00
2022-11-09T11:57:51.930Z,8.48
2022-11-09T12:03:05.781Z,8.40
2022-11-09T12:08:21.291Z,8.27
2022-11-09T12:13:32.708Z,8.60
2022-11-09T12:18:47.578Z,7.95
2022-11-09T12:23:55.239Z,7.53
2022-11-09T12:29:03.089Z,7.97
2022-11-09T12:34:06.206Z,8.82
2022-11-09T12:39:05.896Z,8.45
2022-11-09T12:44:14.455Z,8.13
2022-11-09T12:49:31.740Z,8.93
2022-11-09T12:54:28.070Z,8.25
2022-11-09T12:59:27.330Z,8.35
2022-11-09T13:04:24.821Z,8.15
2022-11-09T13:09:24.331Z,7.90
2022-11-09T13:14:23.417Z,8.00
2022-11-09T13:19:34.789Z,9.23
2022-11-09T13:24:30.993Z,8.20
2022-11-09T13:29:28.644Z,7.60
2022-11-09T13:34:40.515Z,7.18
2022-11-09T13:39:37.797Z,7.85
2022-11-09T13:44:35.986Z,8.43
2022-11-09T13:49:39.121Z,8.50
2022-11-09T13:54:36.783Z,8.63
2022-11-09T13:59:42.588Z,8.77
2022-11-09T14:04:41.144Z,7.72
2022-11-09T14:09:45.598Z,7.45
2022-11-09T14:14:48.660Z,8.02
2022-11-09T14:20:09.210Z,7.22
2022-11-09T14:25:18.693Z,9.48
2022-11-09T14:30:20.658Z,7.65
2022-11-09T14:35:25.804Z,8.05
2022-11-09T14:40:26.362Z,8.05
2022-11-09T14:45:23.452Z,7.93
2022-11-09T14:50:27.036Z,8.18
2022-11-09T14:55:24.105Z,8.90
2022-11-09T15:00:23.275Z,8.65
2022-11-09T15:05:31.777Z,9.40
2022-11-09T15:10:30.570Z,8.23
2022-11-09T15:15:27.852Z,9.15
2022-11-09T15:20:26.198Z,8.95
2022-11-09T15:25:28.726Z,8.63
2022-11-09T15:35:21.334Z,9.00
2022-11-09T15:40:19.337Z,9.07
2022-11-09T15:45:16.723Z,9.02
2022-11-09T15:50:17.396Z,10.05
2022-11-09T15:55:14.695Z,9.32
2022-11-09T16:00:19.638Z,9.43
2022-11-09T16:05:18.202Z,10.35
2022-11-09T16:10:14.563Z,9.55
2022-11-09T16:15:10.878Z,9.43
2022-11-09T16:20:07.425Z,9.80
2022-11-09T16:25:03.797Z,9.30
2022-11-09T16:30:00.187Z,9.60
2022-11-09T16:35:23.334Z,9.18
2022-11-09T16:40:15.992Z,9.05
2022-11-09T16:45:14.312Z,10.65
2022-11-09T16:50:11.098Z,12.90
2022-11-09T16:55:09.211Z,17.48
2022-11-09T17:00:06.419Z,20.48
2022-11-09T17:05:02.762Z,25.13
2022-11-09T17:09:59.191Z,29.67
2022-11-09T17:14:55.493Z,36.55
2022-11-09T17:19:51.787Z,37.03
2022-11-09T17:24:48.040Z,29.85
2022-11-09T17:29:44.665Z,30.65
2022-11-09T17:34:40.873Z,23.52
2022-11-09T17:39:37.057Z,21.42
2022-11-09T17:44:36.466Z,18.75
2022-11-09T17:49:32.813Z,15.45
2022-11-09T17:54:33.956Z,15.68
2022-11-09T17:59:33.165Z,16.17
2022-11-09T18:04:29.476Z,14.60
2022-11-09T18:09:42.393Z,17.88
2022-11-09T18:14:39.126Z,15.57
2022-11-09T18:19:35.386Z,14.00
2022-11-09T18:24:32.948Z,13.20
2022-11-09T18:29:29.249Z,13.15
2022-11-09T18:34:25.433Z,15.13
2022-11-09T18:39:21.692Z,20.73
2022-11-09T18:44:18.038Z,22.40
2022-11-09T18:49:15.454Z,24.05
2022-11-09T18:54:12.045Z,26.88
2022-11-09T18:59:10.233Z,25.48
2022-11-09T19:04:06.643Z,22.83
2022-11-09T19:09:21.714Z,29.05
2022-11-09T19:14:17.933Z,33.50
2022-11-09T19:19:14.659Z,34.90
2022-11-09T19:24:12.165Z,32.90
2022-11-09T19:29:09.342Z,29.45
2022-11-09T19:34:05.553Z,23.30
2022-11-09T19:39:02.080Z,21.33
2022-11-09T19:43:58.617Z,21.48
2022-11-09T19:48:55.003Z,19.30
2022-11-09T19:53:55.444Z,18.77
2022-11-09T19:58:53.052Z,18.67
2022-11-09T20:03:53.246Z,19.73
2022-11-09T20:08:49.540Z,21.00
2022-11-09T20:13:46.200Z,21.63
2022-11-09T20:18:42.920Z,21.17
2022-11-09T20:23:39.175Z,20.00
2022-11-09T20:28:35.757Z,22.85
2022-11-09T20:33:32.010Z,20.92
2022-11-09T20:38:31.582Z,22.52
2022-11-09T20:43:27.884Z,20.77
2022-11-09T20:48:52.194Z,24.02
2022-11-09T20:53:40.540Z,23.02
2022-11-09T20:58:36.862Z,25.73
2022-11-09T21:03:33.504Z,25.83
2022-11-09T21:08:30.130Z,29.63
2022-11-09T21:13:26.548Z,31.92
2022-11-09T21:18:23.058Z,32.25
2022-11-09T21:23:19.594Z,36.78
2022-11-09T21:28:34.867Z,32.42
2022-11-09T21:33:31.086Z,34.78
2022-11-09T21:38:27.399Z,33.42
2022-11-09T21:43:23.803Z,33.90
2022-11-09T21:48:20.436Z,39.55
2022-11-09T21:53:16.901Z,39.22
2022-11-09T21:58:13.113Z,40.42
2022-11-09T22:03:09.411Z,40.38
2022-11-09T22:08:05.670Z,41.30
2022-11-09T22:13:20.867Z,39.33
2022-11-09T22:18:36.004Z,38.83
2022-11-09T22:23:32.440Z,44.42
2022-11-09T22:28:28.740Z,45.92
2022-11-09T22:33:27.469Z,45.47
2022-11-09T22:38:24.187Z,41.40
2022-11-09T22:43:20.902Z,51.10
2022-11-09T22:48:17.431Z,48.50
2022-11-09T22:53:13.629Z,48.53
2022-11-09T22:58:10.812Z,56.42
2022-11-09T23:03:07.089Z,54.78
2022-11-09T23:08:03.374Z,54.58
2022-11-09T23:12:59.799Z,57.20
2022-11-09T23:18:15.836Z,52.05
2022-11-09T23:23:12.057Z,54.70
2022-11-09T23:28:08.270Z,59.83
2022-11-09T23:33:04.499Z,63.13
2022-11-09T23:38:01.730Z,64.47
2022-11-09T23:43:01.620Z,67.40
2022-11-09T23:47:57.879Z,70.80
2022-11-09T23:52:58.193Z,63.33
2022-11-09T23:57:54.427Z,75.60
